Time;durP1;ratioP1;P1;durP2;ratioP2;P2;SDS_P1;SDS_P2;PMS_P1;PMS_P2;Temp;Humidity;BMP_temperature;BMP_pressure;BME280_temperature;BME280_humidity;BME280_pressure;Samples;Min_cycle;Max_cycle;Signal;HPM_P1;HPM_P2
2021/08/22 00:00:14;;;;;;;20.75;5.75;;;36.60;26.20;;;;;;5076987;28;20110;-56
2021/08/22 00:02:41;;;;;;;17.33;5.72;;;36.50;26.50;;;;;;5070583;28;20463;-58
2021/08/22 00:05:08;;;;;;;26.27;6.75;;;36.40;27.30;;;;;;5076804;28;20533;-61
2021/08/22 00:07:35;;;;;;;26.73;6.60;;;36.40;28.80;;;;;;5074189;28;20168;-55
2021/08/22 00:10:01;;;;;;;19.08;6.47;;;36.40;29.40;;;;;;5077866;28;20081;-58
2021/08/22 00:12:28;;;;;;;16.60;5.03;;;36.30;30.40;;;;;;5074936;28;20096;-59
2021/08/22 00:14:54;;;;;;;21.35;5.68;;;36.00;30.40;;;;;;5082362;28;20072;-57
2021/08/22 00:17:21;;;;;;;19.45;5.07;;;36.00;31.00;;;;;;5074381;28;20171;-57
2021/08/22 00:19:48;;;;;;;21.70;5.65;;;35.80;31.60;;;;;;5078005;28;20189;-57
2021/08/22 00:22:14;;;;;;;24.70;7.07;;;35.70;31.50;;;;;;5076736;28;20076;-58
2021/08/22 00:24:41;;;;;;;21.00;5.32;;;35.70;31.10;;;;;;5092275;28;20107;-58
2021/08/22 00:27:07;;;;;;;16.05;5.40;;;35.80;31.80;;;;;;5076743;28;20074;-59
2021/08/22 00:29:34;;;;;;;19.38;6.50;;;35.70;31.40;;;;;;5075088;28;20091;-59
2021/08/22 00:32:01;;;;;;;27.38;5.65;;;35.70;29.70;;;;;;5092224;28;20093;-58
2021/08/22 00:34:28;;;;;;;22.10;6.57;;;35.60;29.80;;;;;;5073197;28;20069;-58
2021/08/22 00:36:55;;;;;;;20.00;6.20;;;35.40;29.10;;;;;;5071354;28;20091;-58
2021/08/22 00:39:24;;;;;;;20.10;6.85;;;35.40;27.80;;;;;;5075672;28;20072;-60
2021/08/22 00:41:51;;;;;;;15.52;6.15;;;35.30;27.90;;;;;;5075508;28;20081;-57
2021/08/22 00:44:17;;;;;;;21.45;6.32;;;35.40;26.90;;;;;;5079533;28;20077;-59
2021/08/22 00:46:46;;;;;;;22.38;6.80;;;35.30;27.00;;;;;;5079789;28;20076;-54
2021/08/22 00:49:13;;;;;;;21.70;7.05;;;35.20;26.40;;;;;;5072822;28;20073;-60
2021/08/22 00:51:40;;;;;;;23.65;6.85;;;35.20;29.00;;;;;;5068337;28;20112;-60
2021/08/22 00:54:07;;;;;;;37.17;6.85;;;35.10;28.80;;;;;;5073198;28;20163;-56
2021/08/22 00:56:34;;;;;;;24.15;6.38;;;35.10;29.00;;;;;;5070136;28;20073;-59
2021/08/22 00:59:14;;;;;;;32.35;7.05;;;34.90;31.00;;;;;;5073127;28;20142;-58
2021/08/22 01:01:48;;;;;;;20.65;5.90;;;34.90;31.00;;;;;;5071528;28;20097;-56
2021/08/22 01:04:18;;;;;;;20.63;6.95;;;34.60;30.20;;;;;;5072563;28;20118;-60
2021/08/22 01:06:59;;;;;;;19.33;6.78;;;34.60;30.10;;;;;;5078974;28;20081;-56
2021/08/22 01:09:32;;;;;;;25.77;6.82;;;34.60;30.80;;;;;;5076974;28;20097;-60
2021/08/22 01:12:07;;;;;;;24.50;6.38;;;34.50;30.00;;;;;;5072241;28;20120;-59
2021/08/22 01:14:39;;;;;;;21.40;6.30;;;34.40;30.70;;;;;;5073368;28;20533;-58
2021/08/22 01:17:06;;;;;;;25.98;6.35;;;34.30;31.20;;;;;;5073923;28;20077;-55
2021/08/22 01:19:51;;;;;;;22.70;6.35;;;34.30;30.60;;;;;;5078646;28;20113;-59
2021/08/22 01:22:20;;;;;;;26.02;7.32;;;34.20;30.40;;;;;;5072793;28;20069;-57
2021/08/22 01:24:48;;;;;;;17.95;6.93;;;34.00;30.00;;;;;;5076297;28;20099;-57
2021/08/22 01:27:15;;;;;;;13.93;6.32;;;33.90;30.70;;;;;;5070576;28;20166;-54
2021/08/22 01:30:02;;;;;;;18.05;6.93;;;33.80;32.20;;;;;;5075956;28;20093;-59
2021/08/22 01:32:36;;;;;;;28.40;7.07;;;33.70;31.20;;;;;;5075322;28;20153;-56
2021/08/22 01:35:03;;;;;;;22.80;7.38;;;33.60;30.40;;;;;;5076079;28;20076;-56
2021/08/22 01:37:31;;;;;;;16.25;7.28;;;33.50;30.40;;;;;;5070653;28;20084;-56
2021/08/22 01:39:58;;;;;;;21.15;6.88;;;33.40;31.30;;;;;;5074244;28;20095;-60
2021/08/22 01:42:26;;;;;;;16.17;7.25;;;33.30;32.50;;;;;;5074883;28;20104;-56
2021/08/22 01:44:53;;;;;;;15.50;6.93;;;33.20;32.30;;;;;;5077161;28;20068;-53
2021/08/22 01:47:20;;;;;;;21.60;6.95;;;33.10;31.40;;;;;;5073536;28;20085;-58
2021/08/22 01:49:47;;;;;;;18.27;7.03;;;33.00;32.50;;;;;;5079715;28;20537;-59
2021/08/22 01:52:14;;;;;;;16.55;7.55;;;32.90;34.50;;;;;;5080027;28;20219;-60
2021/08/22 01:54:45;;;;;;;13.57;7.32;;;32.90;32.60;;;;;;5074582;28;20103;-54
2021/08/22 01:57:11;;;;;;;16.20;7.47;;;32.80;33.40;;;;;;5077483;28;20089;-59
2021/08/22 01:59:38;;;;;;;19.02;6.80;;;32.70;34.30;;;;;;5082435;28;20100;-58
2021/08/22 02:02:05;;;;;;;14.75;7.35;;;32.60;35.60;;;;;;5077496;28;20116;-56
2021/08/22 02:04:38;;;;;;;17.52;6.97;;;32.50;36.70;;;;;;5080284;28;20087;-59
2021/08/22 02:07:17;;;;;;;20.00;7.55;;;32.40;38.00;;;;;;5075611;28;20085;-55
2021/08/22 02:09:59;;;;;;;19.13;8.30;;;32.40;38.00;;;;;;5082510;28;20083;-57
2021/08/22 02:12:25;;;;;;;22.55;7.25;;;32.30;39.40;;;;;;5078729;28;20119;-55
2021/08/22 02:15:23;;;;;;;22.17;7.68;;;32.10;39.80;;;;;;5076240;28;20087;-58
2021/08/22 02:17:51;;;;;;;;;;;32.10;39.30;;;;;;5075502;28;20143;-58
2021/08/22 02:20:18;;;;;;;19.40;7.30;;;32.00;39.10;;;;;;5081626;28;20030;-59
2021/08/22 02:22:47;;;;;;;14.35;7.10;;;31.90;38.60;;;;;;5075769;28;20619;-58
2021/08/22 02:25:14;;;;;;;21.17;7.30;;;31.90;39.20;;;;;;5079219;28;20089;-60
2021/08/22 02:27:41;;;;;;;15.95;7.60;;;31.80;39.40;;;;;;5077923;28;20171;-57
2021/08/22 02:30:09;;;;;;;18.33;7.25;;;31.70;41.20;;;;;;5074275;28;20065;-58
2021/08/22 02:32:36;;;;;;;26.63;8.15;;;31.60;42.10;;;;;;5079388;28;20419;-58
2021/08/22 02:35:03;;;;;;;20.10;7.70;;;31.60;42.40;;;;;;5077761;28;20107;-58
2021/08/22 02:37:29;;;;;;;20.98;7.72;;;31.50;42.20;;;;;;5074121;28;20171;-60
2021/08/22 02:39:57;;;;;;;25.02;7.40;;;31.50;42.20;;;;;;5074915;28;20069;-59
2021/08/22 02:42:24;;;;;;;23.98;8.13;;;31.40;42.70;;;;;;5076064;28;20513;-56
2021/08/22 02:44:51;;;;;;;22.10;8.00;;;31.40;42.90;;;;;;5077538;28;20073;-57
2021/08/22 02:47:18;;;;;;;24.27;7.45;;;31.40;43.40;;;;;;5076916;28;20070;-57
2021/08/22 02:49:44;;;;;;;19.95;7.20;;;31.20;44.60;;;;;;5079117;28;20191;-57
2021/08/22 02:52:11;;;;;;;17.13;7.22;;;31.20;45.30;;;;;;5077351;28;20116;-58
2021/08/22 02:54:38;;;;;;;14.88;7.10;;;31.10;46.10;;;;;;5080928;28;20100;-59
2021/08/22 02:57:05;;;;;;;27.20;8.10;;;31.00;46.80;;;;;;5078607;28;20111;-59
2021/08/22 02:59:31;;;;;;;22.83;7.47;;;30.90;47.20;;;;;;5076233;28;20072;-59
2021/08/22 03:01:58;;;;;;;23.67;7.78;;;30.90;47.70;;;;;;5091027;28;20096;-56
2021/08/22 03:04:24;;;;;;;18.75;7.55;;;30.90;47.90;;;;;;5078012;28;20073;-59
2021/08/22 03:06:51;;;;;;;19.42;7.60;;;30.80;48.80;;;;;;5077965;28;20069;-57
2021/08/22 03:09:17;;;;;;;23.17;7.30;;;30.70;48.70;;;;;;5079093;28;20073;-59
2021/08/22 03:11:44;;;;;;;16.95;7.22;;;30.60;48.60;;;;;;5078898;28;20518;-58
2021/08/22 03:14:11;;;;;;;18.42;7.60;;;30.60;49.00;;;;;;5080749;28;20065;-61
2021/08/22 03:16:37;;;;;;;19.35;8.10;;;30.50;48.80;;;;;;5077460;28;20110;-59
2021/08/22 03:19:04;;;;;;;21.10;8.52;;;30.50;48.40;;;;;;5078720;28;20131;-61
2021/08/22 03:21:31;;;;;;;19.88;8.50;;;30.40;47.90;;;;;;5082330;28;20080;-60
2021/08/22 03:23:57;;;;;;;17.00;7.75;;;30.40;47.70;;;;;;5078535;28;20076;-60
2021/08/22 03:26:24;;;;;;;16.58;6.90;;;30.40;47.90;;;;;;5076720;28;20069;-58
2021/08/22 03:28:51;;;;;;;20.70;8.18;;;30.40;48.10;;;;;;5074055;28;20089;-61
2021/08/22 03:31:18;;;;;;;20.75;7.95;;;30.30;48.10;;;;;;5076888;28;20437;-55
2021/08/22 03:33:45;;;;;;;25.55;8.10;;;30.30;48.50;;;;;;5077429;28;20084;-59
2021/08/22 03:36:11;;;;;;;27.20;8.00;;;30.10;49.20;;;;;;5082257;28;20619;-62
2021/08/22 03:38:38;;;;;;;20.30;8.43;;;30.10;49.60;;;;;;5075876;28;20073;-60
2021/08/22 03:41:05;;;;;;;14.70;8.63;;;30.10;50.00;;;;;;5081864;28;20076;-61
2021/08/22 03:43:31;;;;;;;18.58;8.25;;;30.00;50.30;;;;;;5081254;28;20484;-57
2021/08/22 03:45:58;;;;;;;16.40;7.28;;;30.00;50.70;;;;;;5077631;28;20074;-59
2021/08/22 03:48:24;;;;;;;25.25;7.65;;;30.00;50.70;;;;;;5078341;28;20580;-58
2021/08/22 03:50:51;;;;;;;27.17;7.75;;;29.90;50.90;;;;;;5078157;28;20097;-64
2021/08/22 03:53:17;;;;;;;16.90;8.15;;;29.90;51.00;;;;;;5078501;28;20073;-53
2021/08/22 03:55:45;;;;;;;14.05;7.57;;;29.70;51.50;;;;;;5082025;28;20085;-58
2021/08/22 03:58:12;;;;;;;14.68;7.85;;;29.60;52.00;;;;;;5075576;28;20073;-64
2021/08/22 04:00:39;;;;;;;20.92;8.15;;;29.60;52.40;;;;;;5078296;28;20069;-59
2021/08/22 04:03:05;;;;;;;17.77;7.93;;;29.60;52.60;;;;;;5079907;28;20072;-60
2021/08/22 04:05:33;;;;;;;21.42;8.00;;;29.60;52.90;;;;;;5080550;28;20101;-61
2021/08/22 04:08:00;;;;;;;18.67;8.13;;;29.60;52.90;;;;;;5077889;28;20085;-59
2021/08/22 04:10:28;;;;;;;22.20;7.88;;;29.60;52.70;;;;;;5074556;28;20073;-58
2021/08/22 04:12:55;;;;;;;15.80;7.60;;;29.60;52.70;;;;;;5076864;28;20548;-57
2021/08/22 04:15:23;;;;;;;22.98;8.32;;;29.50;53.10;;;;;;5075682;28;21790;-56
2021/08/22 04:17:49;;;;;;;13.35;6.65;;;29.40;54.00;;;;;;5077054;28;20173;-59
2021/08/22 04:20:16;;;;;;;18.55;7.63;;;29.30;54.70;;;;;;5077899;28;20185;-58
2021/08/22 04:22:43;;;;;;;19.90;8.63;;;29.30;55.30;;;;;;5072750;28;20575;-55
2021/08/22 04:25:12;;;;;;;19.90;7.40;;;29.20;56.10;;;;;;5074853;28;20078;-57
2021/08/22 04:27:41;;;;;;;16.77;7.70;;;29.30;56.50;;;;;;5081279;28;20099;-54
2021/08/22 04:30:12;;;;;;;20.42;7.57;;;29.10;56.80;;;;;;5074951;28;20079;-57
2021/08/22 04:32:39;;;;;;;19.88;7.78;;;29.10;57.20;;;;;;5072558;28;20130;-58
2021/08/22 04:35:07;;;;;;;20.95;7.47;;;29.10;57.40;;;;;;5075383;28;20208;-59
2021/08/22 04:37:33;;;;;;;19.00;7.78;;;29.00;57.60;;;;;;5071660;28;20508;-58
2021/08/22 04:40:00;;;;;;;15.60;7.45;;;29.00;57.90;;;;;;5080041;28;20150;-57
2021/08/22 04:42:26;;;;;;;20.17;8.43;;;29.00;58.10;;;;;;5075046;28;20099;-57
2021/08/22 04:44:53;;;;;;;21.55;8.43;;;28.90;58.60;;;;;;5075713;28;20088;-59
2021/08/22 04:47:20;;;;;;;18.55;7.60;;;28.90;58.70;;;;;;5077769;28;20102;-57
2021/08/22 04:49:47;;;;;;;17.25;7.97;;;28.70;58.70;;;;;;5091437;28;20470;-58
2021/08/22 04:52:15;;;;;;;24.67;8.88;;;28.80;58.60;;;;;;5076640;28;20103;-58
2021/08/22 04:54:42;;;;;;;22.67;9.98;;;28.70;58.40;;;;;;5073274;28;20107;-58
2021/08/22 04:57:09;;;;;;;19.60;8.18;;;28.80;56.60;;;;;;5070474;28;20160;-55
2021/08/22 04:59:35;;;;;;;19.63;9.57;;;28.70;56.40;;;;;;5071524;28;20077;-56
2021/08/22 05:02:04;;;;;;;24.00;10.05;;;28.70;55.40;;;;;;5075621;28;20073;-54
2021/08/22 05:04:34;;;;;;;21.80;9.40;;;28.80;55.10;;;;;;5079837;28;20134;-56
2021/08/22 05:07:00;;;;;;;16.95;9.27;;;28.70;55.20;;;;;;5076014;28;20085;-55
2021/08/22 05:09:27;;;;;;;22.33;9.75;;;28.70;55.40;;;;;;5071256;28;20076;-59
2021/08/22 05:11:54;;;;;;;23.70;9.25;;;28.70;55.40;;;;;;5071460;28;20100;-58
2021/08/22 05:14:22;;;;;;;20.27;8.60;;;28.70;55.10;;;;;;5078343;28;20083;-61
2021/08/22 05:16:48;;;;;;;23.90;8.95;;;28.80;55.00;;;;;;5079348;28;20522;-61
2021/08/22 05:19:15;;;;;;;21.27;10.15;;;28.80;54.50;;;;;;5079131;28;20133;-62
2021/08/22 05:21:42;;;;;;;25.90;10.07;;;28.80;54.60;;;;;;5074804;28;20100;-59
2021/08/22 05:24:08;;;;;;;20.23;9.60;;;28.90;54.00;;;;;;5076477;28;20065;-61
2021/08/22 05:26:35;;;;;;;23.02;10.30;;;28.80;53.90;;;;;;5075773;28;20085;-62
2021/08/22 05:29:01;;;;;;;22.30;9.93;;;28.80;53.70;;;;;;5075621;28;20069;-61
2021/08/22 05:31:28;;;;;;;14.65;9.32;;;28.80;53.70;;;;;;5077430;28;20101;-61
2021/08/22 05:33:54;;;;;;;20.10;9.82;;;28.80;53.40;;;;;;5076284;28;20473;-61
2021/08/22 05:36:22;;;;;;;23.10;9.60;;;28.70;53.40;;;;;;5077272;28;20541;-61
2021/08/22 05:38:52;;;;;;;19.80;9.73;;;28.70;53.00;;;;;;5082139;28;20080;-62
2021/08/22 05:41:18;;;;;;;18.35;10.63;;;28.80;52.70;;;;;;5074311;28;20089;-62
2021/08/22 05:43:46;;;;;;;21.63;10.13;;;28.70;52.50;;;;;;5077951;28;20080;-61
2021/08/22 05:46:12;;;;;;;19.83;8.93;;;28.60;52.70;;;;;;5075338;28;20077;-64
2021/08/22 05:48:39;;;;;;;23.85;10.85;;;28.60;52.50;;;;;;5074683;28;20407;-62
2021/08/22 05:51:05;;;;;;;25.95;10.00;;;28.70;52.20;;;;;;5077060;28;20100;-61
2021/08/22 05:53:32;;;;;;;25.48;10.32;;;28.70;52.20;;;;;;5074500;28;20146;-64
2021/08/22 05:55:59;;;;;;;22.77;10.80;;;28.70;52.00;;;;;;5078395;28;20081;-62
2021/08/22 05:58:25;;;;;;;27.25;11.70;;;28.80;52.00;;;;;;5077325;28;20100;-61
2021/08/22 06:00:52;;;;;;;29.70;10.80;;;28.80;51.70;;;;;;5077847;28;20081;-62
2021/08/22 06:03:18;;;;;;;23.27;10.68;;;28.70;51.60;;;;;;5074899;28;20064;-62
2021/08/22 06:05:45;;;;;;;23.92;10.55;;;28.70;51.70;;;;;;5075708;28;20430;-62
2021/08/22 06:08:11;;;;;;;29.38;10.25;;;28.60;52.40;;;;;;5073348;28;20073;-61
2021/08/22 06:10:39;;;;;;;22.67;10.25;;;28.60;52.10;;;;;;5080585;28;20120;-63
2021/08/22 06:13:05;;;;;;;21.48;11.02;;;28.60;52.30;;;;;;5073082;28;20081;-57
2021/08/22 06:15:32;;;;;;;33.60;10.35;;;29.10;51.10;;;;;;5075627;28;20539;-56
2021/08/22 06:17:59;;;;;;;29.23;11.00;;;29.40;50.60;;;;;;5076513;28;20106;-56
2021/08/22 06:20:26;;;;;;;29.30;12.13;;;29.60;49.60;;;;;;5072792;28;20596;-58
2021/08/22 06:22:52;;;;;;;22.77;11.15;;;30.40;48.40;;;;;;5076938;28;20173;-57
2021/08/22 06:25:19;;;;;;;30.70;15.40;;;30.70;47.30;;;;;;5073347;28;20146;-56
2021/08/22 06:27:45;;;;;;;29.67;15.43;;;30.60;47.30;;;;;;5074058;28;20073;-58
2021/08/22 06:30:12;;;;;;;26.83;15.50;;;30.10;47.40;;;;;;5072079;28;20119;-58
2021/08/22 06:32:39;;;;;;;25.92;13.77;;;30.20;47.70;;;;;;5073187;28;20458;-58
2021/08/22 06:35:06;;;;;;;27.20;14.10;;;30.00;47.70;;;;;;5079790;28;20069;-58
2021/08/22 06:37:32;;;;;;;25.65;14.23;;;30.00;48.00;;;;;;5076912;28;20456;-57
2021/08/22 06:40:00;;;;;;;26.17;12.98;;;30.40;47.40;;;;;;5079527;28;20531;-60
2021/08/22 06:42:27;;;;;;;22.13;12.00;;;30.20;47.30;;;;;;5080124;28;20467;-59
2021/08/22 06:44:57;;;;;;;24.08;11.70;;;30.40;47.40;;;;;;5078396;28;20069;-58
2021/08/22 06:47:24;;;;;;;20.50;10.27;;;30.40;47.20;;;;;;5078587;28;20084;-56
2021/08/22 06:49:51;;;;;;;17.55;9.85;;;29.90;47.90;;;;;;5074673;28;20099;-58
2021/08/22 06:52:18;;;;;;;21.35;9.82;;;29.60;48.50;;;;;;5076115;28;20100;-58
2021/08/22 06:54:44;;;;;;;17.10;9.48;;;29.30;48.90;;;;;;5076796;28;20592;-59
2021/08/22 06:57:12;;;;;;;21.55;10.38;;;29.30;49.30;;;;;;5080080;28;20522;-56
2021/08/22 06:59:39;;;;;;;24.10;10.30;;;29.30;49.10;;;;;;5078929;28;20609;-57
2021/08/22 07:02:06;;;;;;;21.33;10.30;;;29.70;49.10;;;;;;5079456;28;20101;-57
2021/08/22 07:04:33;;;;;;;17.35;9.77;;;29.60;48.70;;;;;;5076208;28;20531;-58
2021/08/22 07:07:02;;;;;;;24.40;10.05;;;29.40;48.90;;;;;;5074454;28;20080;-58
2021/08/22 07:09:29;;;;;;;23.08;10.02;;;29.60;48.80;;;;;;5074908;28;20081;-59
2021/08/22 07:11:55;;;;;;;22.95;10.10;;;29.40;48.90;;;;;;5078709;28;20108;-59
2021/08/22 07:14:22;;;;;;;23.52;10.50;;;29.40;49.40;;;;;;5077128;28;20076;-56
2021/08/22 07:16:49;;;;;;;16.73;9.20;;;29.10;49.30;;;;;;5075501;28;20081;-59
2021/08/22 07:19:15;;;;;;;19.83;9.57;;;29.40;49.00;;;;;;5076898;28;20113;-57
2021/08/22 07:21:42;;;;;;;17.02;8.93;;;29.60;48.80;;;;;;5077878;28;20072;-59
2021/08/22 07:24:09;;;;;;;21.00;9.13;;;29.50;48.70;;;;;;5082211;28;20065;-59
2021/08/22 07:26:35;;;;;;;21.25;9.48;;;29.30;48.50;;;;;;5073318;28;20085;-59
2021/08/22 07:29:03;;;;;;;20.95;8.68;;;29.30;48.90;;;;;;5074754;28;20453;-56
2021/08/22 07:31:31;;;;;;;24.35;10.27;;;29.20;49.30;;;;;;5074174;28;20089;-58
2021/08/22 07:33:58;;;;;;;20.42;9.35;;;29.00;49.50;;;;;;5078110;28;20073;-55
2021/08/22 07:36:26;;;;;;;25.70;10.15;;;28.90;49.90;;;;;;5078618;28;20073;-59
2021/08/22 07:38:52;;;;;;;17.58;9.65;;;28.80;49.90;;;;;;5075666;28;20077;-56
2021/08/22 07:41:19;;;;;;;17.45;9.52;;;28.80;49.90;;;;;;5079125;28;20072;-58
2021/08/22 07:43:45;;;;;;;19.60;9.73;;;28.70;50.30;;;;;;5079148;28;20069;-56
2021/08/22 07:46:12;;;;;;;19.05;9.57;;;28.70;50.50;;;;;;5079237;28;20073;-56
2021/08/22 07:48:38;;;;;;;20.08;9.88;;;28.60;50.70;;;;;;5075574;28;20089;-57
2021/08/22 07:51:05;;;;;;;19.75;10.52;;;29.10;50.00;;;;;;5073176;28;20187;-57
2021/08/22 07:53:31;;;;;;;18.25;9.82;;;28.60;50.40;;;;;;5078415;28;20537;-53
2021/08/22 07:55:58;;;;;;;17.33;10.23;;;28.60;50.90;;;;;;5076236;28;20449;-58
2021/08/22 07:58:24;;;;;;;26.35;9.30;;;28.70;50.80;;;;;;5076559;28;20549;-58
2021/08/22 08:00:51;;;;;;;21.33;9.50;;;28.80;50.70;;;;;;5077611;28;20087;-57
2021/08/22 08:03:17;;;;;;;21.05;9.05;;;28.90;50.00;;;;;;5077241;28;20073;-57
2021/08/22 08:05:44;;;;;;;22.27;9.75;;;28.50;50.70;;;;;;5074219;28;20158;-59
2021/08/22 08:08:10;;;;;;;19.48;10.32;;;28.30;51.20;;;;;;5073119;28;20081;-58
2021/08/22 08:10:37;;;;;;;19.35;9.43;;;28.30;51.30;;;;;;5075745;28;20083;-59
2021/08/22 08:13:04;;;;;;;17.08;9.63;;;28.20;51.40;;;;;;5075831;28;20164;-58
2021/08/22 08:15:30;;;;;;;23.13;10.32;;;28.40;51.20;;;;;;5078252;28;20081;-58
2021/08/22 08:17:57;;;;;;;28.92;10.77;;;28.40;51.10;;;;;;5073138;28;20111;-56
2021/08/22 08:20:23;;;;;;;23.33;10.63;;;28.30;51.30;;;;;;5072263;28;21177;-58
2021/08/22 08:22:50;;;;;;;23.88;10.15;;;28.10;51.60;;;;;;5078222;28;20084;-57
2021/08/22 08:25:16;;;;;;;18.98;9.25;;;28.30;52.00;;;;;;5071870;28;20084;-58
2021/08/22 08:27:43;;;;;;;19.35;9.82;;;28.10;51.70;;;;;;5072321;28;20072;-57
2021/08/22 08:30:11;;;;;;;21.33;9.52;;;28.00;51.80;;;;;;5075334;28;20156;-55
2021/08/22 08:32:40;;;;;;;24.65;10.27;;;27.90;52.00;;;;;;5078051;28;20097;-59
2021/08/22 08:35:10;;;;;;;15.88;9.63;;;28.00;52.10;;;;;;5070144;28;20568;-61
2021/08/22 08:37:38;;;;;;;24.42;10.15;;;28.10;51.60;;;;;;5076464;28;20557;-58
2021/08/22 08:40:15;;;;;;;18.75;10.25;;;28.00;51.80;;;;;;5074252;28;20099;-55
2021/08/22 08:42:53;;;;;;;18.92;9.70;;;27.80;53.10;;;;;;5073276;28;20083;-58
2021/08/22 08:45:44;;;;;;;20.25;9.70;;;27.80;53.10;;;;;;5075461;28;20096;-54
2021/08/22 08:48:11;;;;;;;19.65;10.55;;;27.80;53.10;;;;;;5078300;28;20199;-59
2021/08/22 08:51:00;;;;;;;18.42;10.25;;;27.70;53.30;;;;;;5076345;28;20081;-59
2021/08/22 08:53:47;;;;;;;25.17;10.15;;;27.70;53.40;;;;;;5073967;28;20093;-59
2021/08/22 08:56:14;;;;;;;;;;;27.90;53.30;;;;;;5076753;28;20416;-57
2021/08/22 08:58:40;;;;;;;23.13;9.98;;;28.00;53.20;;;;;;5078857;28;20083;-56
2021/08/22 09:01:07;;;;;;;18.02;10.10;;;28.20;52.90;;;;;;5078238;28;20081;-58
2021/08/22 09:03:36;;;;;;;29.73;10.65;;;28.10;52.70;;;;;;5073599;28;20564;-56
2021/08/22 09:06:05;;;;;;;31.10;10.98;;;27.90;52.70;;;;;;5077432;28;20101;-58
2021/08/22 09:09:07;;;;;;;24.70;10.75;;;27.70;52.70;;;;;;5072776;28;20171;-56
2021/08/22 09:11:58;;;;;;;28.77;11.90;;;27.40;53.50;;;;;;5049476;28;20112;-58
2021/08/22 09:14:58;;;;;;;26.35;12.10;;;27.30;53.50;;;;;;5074293;28;20155;-58
2021/08/22 09:17:52;;;;;;;24.58;11.32;;;27.20;53.90;;;;;;5076952;28;20170;-57
2021/08/22 09:20:40;;;;;;;30.13;11.07;;;27.10;53.80;;;;;;5072793;28;20132;-58
2021/08/22 09:23:25;;;;;;;29.23;13.30;;;27.00;54.00;;;;;;5076559;28;20529;-58
2021/08/22 09:26:28;;;;;;;27.50;11.98;;;27.00;54.20;;;;;;5073868;28;20072;-58
2021/08/22 09:29:32;;;;;;;28.13;12.60;;;26.80;54.30;;;;;;5073656;28;20073;-57
2021/08/22 09:32:35;;;;;;;31.27;11.90;;;26.90;54.30;;;;;;5069318;28;20092;-58
2021/08/22 09:35:23;;;;;;;33.20;12.35;;;26.70;55.10;;;;;;5074885;28;20108;-57
2021/08/22 09:37:55;;;;;;;30.00;12.43;;;26.60;54.80;;;;;;5075256;28;20065;-59
2021/08/22 09:40:36;;;;;;;32.85;13.10;;;26.50;55.30;;;;;;5070785;28;21355;-56
2021/08/22 09:43:39;;;;;;;24.35;12.15;;;26.40;55.60;;;;;;5069197;28;20089;-58
2021/08/22 09:46:46;;;;;;;38.53;12.65;;;26.50;56.20;;;;;;5073839;28;20506;-57
2021/08/22 09:49:46;;;;;;;28.48;12.57;;;26.40;56.10;;;;;;5023438;28;20518;-57
2021/08/22 09:52:50;;;;;;;31.40;12.88;;;26.30;56.30;;;;;;5070144;28;20112;-58
2021/08/22 09:55:44;;;;;;;37.58;12.75;;;26.40;56.30;;;;;;5076267;28;20085;-59
2021/08/22 09:58:46;;;;;;;27.40;13.13;;;26.40;56.40;;;;;;5077975;28;20084;-59
2021/08/22 10:01:26;;;;;;;30.45;12.10;;;26.50;56.40;;;;;;5073800;28;20076;-60
2021/08/22 10:04:29;;;;;;;27.50;13.10;;;26.50;56.90;;;;;;5086124;28;20191;-57
2021/08/22 10:07:08;;;;;;;26.60;12.45;;;26.50;56.80;;;;;;5069430;28;20130;-59
2021/08/22 10:09:54;;;;;;;34.85;13.82;;;26.60;56.80;;;;;;5075679;28;20087;-58
2021/08/22 10:12:21;;;;;;;30.70;12.65;;;26.50;57.10;;;;;;5076446;28;20101;-58
2021/08/22 10:14:48;;;;;;;30.48;13.70;;;26.50;57.40;;;;;;5073286;28;20081;-57
2021/08/22 10:17:26;;;;;;;33.33;13.63;;;26.50;58.10;;;;;;5079719;28;20157;-58
2021/08/22 10:19:54;;;;;;;31.77;13.63;;;26.60;58.20;;;;;;5077439;28;20606;-58
2021/08/22 10:22:36;;;;;;;29.30;13.00;;;26.40;58.30;;;;;;5081381;28;20150;-57
2021/08/22 10:25:17;;;;;;;25.40;12.32;;;26.20;58.70;;;;;;5082311;28;20114;-58
2021/08/22 10:27:46;;;;;;;35.65;12.25;;;26.20;59.10;;;;;;5079827;28;20077;-57
2021/08/22 10:30:13;;;;;;;34.58;11.07;;;26.20;59.50;;;;;;5074476;28;20089;-58
2021/08/22 10:32:58;;;;;;;27.17;11.15;;;25.90;60.60;;;;;;5079978;28;20139;-58
2021/08/22 10:35:31;;;;;;;29.35;11.43;;;26.10;61.00;;;;;;5073192;28;20387;-58
2021/08/22 10:38:20;;;;;;;28.58;11.30;;;26.10;60.60;;;;;;5076150;28;20466;-58
2021/08/22 10:40:48;;;;;;;28.85;10.73;;;26.00;61.30;;;;;;5077264;28;20066;-59
2021/08/22 10:43:15;;;;;;;30.08;10.98;;;26.10;61.30;;;;;;5080448;28;20073;-57
2021/08/22 10:45:48;;;;;;;28.40;11.35;;;26.00;61.40;;;;;;5077465;28;20076;-56
2021/08/22 10:48:23;;;;;;;29.25;10.65;;;26.00;62.00;;;;;;5075587;28;20073;-57
2021/08/22 10:50:59;;;;;;;26.98;11.00;;;26.00;62.10;;;;;;5078116;28;20095;-59
2021/08/22 10:53:36;;;;;;;28.43;10.80;;;26.00;62.10;;;;;;5077879;28;20541;-58
2021/08/22 10:56:21;;;;;;;25.92;10.82;;;26.00;62.00;;;;;;5078625;28;20065;-58
2021/08/22 10:59:01;;;;;;;23.05;10.57;;;26.00;62.60;;;;;;5076681;28;20573;-58
2021/08/22 11:01:29;;;;;;;27.25;9.88;;;26.00;62.60;;;;;;5074527;28;20125;-57
2021/08/22 11:04:21;;;;;;;26.15;10.60;;;26.00;63.10;;;;;;5077849;28;20073;-58
2021/08/22 11:07:02;;;;;;;31.85;10.68;;;25.80;63.30;;;;;;5075720;28;20080;-56
2021/08/22 11:09:37;;;;;;;31.98;10.52;;;25.90;63.80;;;;;;5073092;28;20084;-58
2021/08/22 11:12:21;;;;;;;27.77;10.20;;;26.10;63.50;;;;;;5076459;28;20092;-57
2021/08/22 11:14:48;;;;;;;28.10;10.35;;;26.00;63.40;;;;;;5073069;28;20549;-58
2021/08/22 11:17:14;;;;;;;27.15;10.32;;;25.90;64.40;;;;;;5079247;28;21735;-59
2021/08/22 11:19:41;;;;;;;24.85;10.70;;;25.80;64.80;;;;;;5082211;28;20116;-59
2021/08/22 11:22:25;;;;;;;30.55;10.48;;;25.80;64.60;;;;;;5076489;28;20099;-59
2021/08/22 11:24:54;;;;;;;41.47;12.18;;;25.80;65.10;;;;;;5077000;28;20077;-59
2021/08/22 11:27:26;;;;;;;27.63;10.65;;;25.90;65.20;;;;;;5073595;28;20534;-59
2021/08/22 11:29:58;;;;;;;24.73;11.13;;;26.00;65.00;;;;;;5075715;28;20164;-58
2021/08/22 11:32:25;;;;;;;23.27;10.00;;;25.90;65.20;;;;;;5075640;28;20092;-58
2021/08/22 11:34:52;;;;;;;28.05;11.27;;;25.80;66.50;;;;;;5074907;28;20780;-57
2021/08/22 11:37:20;;;;;;;33.15;11.18;;;25.80;65.70;;;;;;5077879;28;20085;-57
2021/08/22 11:39:47;;;;;;;27.10;11.57;;;25.80;66.70;;;;;;5080668;28;20069;-59
2021/08/22 11:42:23;;;;;;;30.63;11.57;;;25.80;66.30;;;;;;5076064;28;20463;-58
2021/08/22 11:45:06;;;;;;;29.20;11.30;;;25.60;66.80;;;;;;5074291;28;20077;-57
2021/08/22 11:47:32;;;;;;;31.63;11.95;;;25.60;67.00;;;;;;5070848;28;20084;-57
2021/08/22 11:49:59;;;;;;;26.70;10.93;;;25.60;67.00;;;;;;5079078;28;20092;-58
2021/08/22 11:52:26;;;;;;;34.03;12.18;;;25.70;67.50;;;;;;5076666;28;20128;-58
2021/08/22 11:54:52;;;;;;;34.90;11.05;;;25.70;67.40;;;;;;5075551;28;20069;-58
2021/08/22 11:57:21;;;;;;;30.73;11.82;;;25.80;67.00;;;;;;5078549;28;20081;-58
2021/08/22 12:00:09;;;;;;;24.83;12.02;;;25.90;66.60;;;;;;5072723;28;20438;-58
2021/08/22 12:02:35;;;;;;;29.10;11.40;;;25.90;66.60;;;;;;5078021;28;20103;-57
2021/08/22 12:05:22;;;;;;;38.92;12.02;;;25.90;66.60;;;;;;5074357;28;20080;-57
2021/08/22 12:08:00;;;;;;;33.45;12.43;;;25.80;66.40;;;;;;5075053;28;20065;-58
2021/08/22 12:10:29;;;;;;;29.75;11.30;;;25.70;67.20;;;;;;5076139;28;20073;-53
2021/08/22 12:12:57;;;;;;;23.88;11.55;;;25.80;67.00;;;;;;5076156;28;20103;-56
2021/08/22 12:15:32;;;;;;;28.95;12.30;;;25.80;66.50;;;;;;5077922;28;20148;-56
2021/08/22 12:18:30;;;;;;;32.13;12.23;;;25.80;66.50;;;;;;5073065;28;20525;-55
2021/08/22 12:21:14;;;;;;;28.45;12.13;;;25.80;66.60;;;;;;5077584;28;20085;-59
2021/08/22 12:23:42;;;;;;;30.70;12.55;;;25.90;66.20;;;;;;5067094;28;20202;-56
2021/08/22 12:26:26;;;;;;;39.20;13.80;;;25.80;66.90;;;;;;5077600;28;20069;-56
2021/08/22 12:28:55;;;;;;;30.27;12.27;;;25.80;66.50;;;;;;5075392;28;20552;-55
2021/08/22 12:31:31;;;;;;;35.63;13.85;;;25.80;66.70;;;;;;5076119;28;20100;-55
2021/08/22 12:34:00;;;;;;;37.50;13.50;;;25.70;66.60;;;;;;5073587;28;20072;-55
2021/08/22 12:36:38;;;;;;;28.83;12.60;;;25.60;67.30;;;;;;5071230;28;20146;-57
2021/08/22 12:39:08;;;;;;;23.55;12.20;;;25.70;67.20;;;;;;5079477;28;20064;-56
2021/08/22 12:41:47;;;;;;;29.88;12.38;;;25.60;67.70;;;;;;5072262;28;20073;-57
2021/08/22 12:44:18;;;;;;;29.23;12.30;;;25.50;68.30;;;;;;5074365;28;20077;-59
2021/08/22 12:46:52;;;;;;;40.65;13.00;;;25.50;68.50;;;;;;5073564;28;20064;-56
2021/08/22 12:49:19;;;;;;;35.00;12.63;;;25.40;69.40;;;;;;5076358;28;20077;-57
2021/08/22 12:51:48;;;;;;;25.17;11.98;;;25.20;70.10;;;;;;5069896;28;20464;-58